Bennett, CO

5:59 PM MST on December 08, 2016 (GMT -0700)
Front Range

Weather History for KFTG - October, 2011

Change the Weather History Date:

Thursday, October 6, 2011

  Actual Average (KDEN) Record (KDEN)
Temperature  
Mean Temperature 62 °F -  
Max Temperature 73 °F 68 °F 87 °F (1975)
Min Temperature 51 °F 38 °F 26 °F (1995)
Degree Days  
Heating Degree Days 3    
Growing Degree Days 12 (Base 50)    
Moisture  
Dew Point 30 °F    
Average Humidity 32    
Maximum Humidity 47    
Minimum Humidity 18    
Precipitation  
Precipitation 0.00 in - - ()
Sea Level Pressure  
Sea Level Pressure 29.58 in    
Wind  
Wind Speed 20 mph (SSW)    
Max Wind Speed 37 mph    
Max Gust Speed 48 mph    
Visibility 9 miles    
Events      
Averages and records for this station are not official NWS values.
T = Trace of Precipitation, MM = Missing Value Source: NWS Daily Summary

Daily Weather History Graph

Daily Weather History Graph

Search for Another Location

Airport or City:

Trip Planner

Search our weather history database for the weather conditions in past years. The results will help you decide how hot, cold, wet, or windy it might be!

Date:

Astronomy

Oct. 06, 2011 Rise Set
Actual Time 6:59 AM MDT 6:32 PM MDT
Civil Twilight 6:32 AM MDT 6:59 PM MDT
Nautical Twilight 6:00 AM MDT 7:31 PM MDT
Astronomical Twilight 5:29 AM MDT 8:02 PM MDT
Moon 3:47 PM MDT (10/6) 1:50 AM MDT (10/6)
Length of Visible Light 12h 27m
Length of Day
11h 33m
Waxing Gibbous, 76% of the Moon is Illuminated
Oct 6
Waxing Gibbous
Oct 11
Full
Oct 19
Last Quarter
Oct 26
New
Nov 2
First Quarter

Hourly Weather History & Observations

Time (MDT) Temp. Windchill Dew Point Humidity Pressure Visibility Wind Dir Wind Speed Gust Speed Precip Events Conditions
12:09 AM 60.8 °F - 30.2 °F 31% 29.64 in 10.0 mi SSW 20.7 mph 26.5 mph N/A   Clear
12:29 AM 60.8 °F - 30.2 °F 31% 29.64 in 10.0 mi SSW 19.6 mph 26.5 mph N/A   Clear
12:49 AM 60.8 °F - 30.2 °F 31% 29.64 in 10.0 mi SSW 19.6 mph - N/A   Clear
1:09 AM 60.8 °F - 30.2 °F 31% 29.63 in 10.0 mi SSW 25.3 mph 32.2 mph N/A   Clear
1:29 AM 60.8 °F - 30.2 °F 31% 29.63 in 10.0 mi SSW 26.5 mph 32.2 mph N/A   Clear
1:49 AM 60.8 °F - 30.2 °F 31% 29.65 in 10.0 mi South 11.5 mph 28.8 mph N/A   Clear
2:09 AM 60.8 °F - 30.2 °F 31% 29.65 in 10.0 mi South 12.7 mph 19.6 mph N/A   Clear
2:29 AM 59.0 °F - 30.2 °F 34% 29.63 in 10.0 mi South 12.7 mph 17.3 mph N/A   Clear
2:49 AM 59.0 °F - 30.2 °F 34% 29.62 in 10.0 mi South 11.5 mph 20.7 mph N/A   Clear
3:09 AM 59.0 °F - 30.2 °F 34% 29.62 in 10.0 mi South 9.2 mph 19.6 mph N/A   Clear
3:49 AM 55.4 °F - 30.2 °F 38% 29.62 in 10.0 mi South 8.1 mph - N/A   Clear
4:09 AM 53.6 °F - 32.0 °F 44% 29.61 in 10.0 mi South 6.9 mph - N/A   Clear
4:49 AM 51.8 °F - 32.0 °F 47% 29.60 in 10.0 mi South 11.5 mph - N/A   Clear
5:08 AM 51.8 °F - 32.0 °F 47% 29.60 in 10.0 mi South 8.1 mph - N/A   Clear
5:29 AM 51.8 °F - 32.0 °F 47% 29.59 in 10.0 mi South 9.2 mph - N/A   Clear
5:48 AM 51.8 °F - 32.0 °F 47% 29.59 in 10.0 mi South 11.5 mph - N/A   Clear
6:09 AM 51.8 °F - 32.0 °F 47% 29.58 in 10.0 mi South 13.8 mph - N/A   Clear
6:28 AM 51.8 °F - 32.0 °F 47% 29.59 in 10.0 mi South 10.4 mph - N/A   Clear
6:48 AM 51.8 °F - 32.0 °F 47% 29.58 in 10.0 mi South 12.7 mph - N/A   Clear
7:09 AM 51.8 °F - 32.0 °F 47% 29.58 in 10.0 mi South 13.8 mph 20.7 mph N/A   Clear
7:29 AM 53.6 °F - 33.8 °F 47% 29.58 in 10.0 mi South 15.0 mph - N/A   Clear
7:49 AM 55.4 °F - 33.8 °F 44% 29.59 in 10.0 mi South 11.5 mph - N/A   Clear
8:09 AM 55.4 °F - 33.8 °F 44% 29.58 in 10.0 mi South 9.2 mph - N/A   Clear
8:28 AM 59.0 °F - 33.8 °F 39% 29.58 in 10.0 mi SSE 9.2 mph - N/A   Clear
8:49 AM 60.8 °F - 33.8 °F 36% 29.57 in 10.0 mi South 13.8 mph 23.0 mph N/A   Clear
9:29 AM 64.4 °F - 32.0 °F 30% 29.55 in 10.0 mi South 21.9 mph 28.8 mph N/A   Clear
9:49 AM 64.4 °F - 32.0 °F 30% 29.55 in 10.0 mi SSW 25.3 mph 33.4 mph N/A   Clear
10:09 AM 66.2 °F - 32.0 °F 28% 29.54 in 10.0 mi SSW 28.8 mph 35.7 mph N/A   Clear
10:29 AM 66.2 °F - 32.0 °F 28% 29.53 in 10.0 mi SSW 28.8 mph 36.8 mph N/A   Clear
10:49 AM 68.0 °F - 32.0 °F 26% 29.52 in 10.0 mi South 17.3 mph 31.1 mph N/A   Clear
11:09 AM 69.8 °F - 30.2 °F 23% 29.51 in 10.0 mi SSW 24.2 mph 34.5 mph N/A   Clear
11:29 AM 69.8 °F - 30.2 °F 23% 29.50 in 10.0 mi South 19.6 mph 26.5 mph N/A   Scattered Clouds
11:49 AM 71.6 °F - 32.0 °F 23% 29.49 in 4.0 mi South 28.8 mph 38.0 mph N/A   Haze
12:09 PM 71.6 °F - 32.0 °F 23% 29.48 in 7.0 mi South 26.5 mph 36.8 mph N/A   Clear
12:29 PM 71.6 °F - 30.2 °F 22% 29.48 in 7.0 mi South 31.1 mph 42.6 mph N/A   Clear
12:50 PM 71.6 °F - 28.4 °F 20% 29.47 in 7.0 mi South 32.2 mph 44.9 mph N/A   Clear
1:10 PM 73.4 °F - 28.4 °F 19% 29.45 in 7.0 mi South 28.8 mph 46.0 mph N/A   Clear
1:30 PM 73.4 °F - 28.4 °F 19% 29.45 in 7.0 mi South 29.9 mph 44.9 mph N/A   Clear
1:50 PM 71.6 °F - 26.6 °F 19% 29.43 in 5.0 mi South 32.2 mph 46.0 mph N/A   Haze
2:10 PM 73.4 °F - 26.6 °F 18% 29.44 in 5.0 mi South 31.1 mph 46.0 mph N/A   Haze
2:30 PM 71.6 °F - 26.6 °F 19% 29.44 in 7.0 mi South 35.7 mph 47.2 mph N/A   Clear
2:49 PM 73.4 °F - 26.6 °F 18% 29.46 in 7.0 mi South 29.9 mph 46.0 mph N/A   Clear
3:10 PM 73.4 °F - 26.6 °F 18% 29.47 in 10.0 mi South 35.7 mph 46.0 mph N/A   Scattered Clouds
3:30 PM 73.4 °F - 26.6 °F 18% 29.48 in 10.0 mi SSW 28.8 mph 41.4 mph N/A   Scattered Clouds
3:50 PM 69.8 °F - 28.4 °F 21% 29.52 in 10.0 mi SSW 32.2 mph 43.7 mph N/A   Clear
4:10 PM 68.0 °F - 28.4 °F 23% 29.55 in 7.0 mi SSW 36.8 mph 48.3 mph N/A   Clear
4:30 PM 62.6 °F - 30.2 °F 30% 29.58 in 5.0 mi SSW 34.5 mph 47.2 mph N/A   Haze
4:50 PM 60.8 °F - 30.2 °F 31% 29.58 in 10.0 mi SSW 25.3 mph 34.5 mph N/A   Mostly Cloudy
5:10 PM 60.8 °F - 28.4 °F 29% 29.60 in 10.0 mi SSW 24.2 mph 39.1 mph N/A   Overcast
5:30 PM 59.0 °F - 28.4 °F 31% 29.61 in 10.0 mi SSW 32.2 mph 42.6 mph N/A   Overcast
5:50 PM 57.2 °F - 28.4 °F 33% 29.62 in 10.0 mi SW 26.5 mph 33.4 mph N/A   Overcast
6:10 PM 55.4 °F - 30.2 °F 38% 29.63 in 10.0 mi SSW 29.9 mph 34.5 mph N/A   Overcast
6:30 PM 55.4 °F - 28.4 °F 36% 29.63 in 10.0 mi SSW 23.0 mph 28.8 mph N/A   Mostly Cloudy
6:50 PM 55.4 °F - 26.6 °F 33% 29.64 in 10.0 mi SSW 25.3 mph 34.5 mph N/A   Mostly Cloudy
7:10 PM 55.4 °F - 24.8 °F 31% 29.64 in 10.0 mi SSW 18.4 mph 34.5 mph N/A   Overcast
7:29 PM 53.6 °F - 24.8 °F 33% 29.66 in 10.0 mi SW 20.7 mph 26.5 mph N/A   Scattered Clouds
7:50 PM 53.6 °F - 24.8 °F 33% 29.67 in 10.0 mi SSW 19.6 mph 25.3 mph N/A   Scattered Clouds
8:10 PM 53.6 °F - 26.6 °F 35% 29.71 in 10.0 mi SSW 18.4 mph 26.5 mph N/A   Mostly Cloudy
8:30 PM 53.6 °F - 26.6 °F 35% 29.70 in 10.0 mi SSW 13.8 mph 21.9 mph N/A   Scattered Clouds
8:47 PM 53.6 °F - 26.6 °F 35% 29.70 in 10.0 mi SW 15.0 mph 18.4 mph N/A   Mostly Cloudy
9:10 PM 53.6 °F - 21.2 °F 28% 29.72 in 10.0 mi SW 17.3 mph 23.0 mph N/A   Mostly Cloudy
9:30 PM 51.8 °F - 21.2 °F 30% 29.72 in 10.0 mi SW 11.5 mph - N/A   Mostly Cloudy
9:49 PM 51.8 °F - 19.4 °F 28% 29.75 in 10.0 mi SW 12.7 mph - N/A   Scattered Clouds
10:09 PM 50.0 °F - 19.4 °F 30% 29.76 in 10.0 mi West 12.7 mph - N/A   Scattered Clouds
10:29 PM 48.2 °F - 19.4 °F 32% 29.77 in 10.0 mi West 10.4 mph - N/A   Scattered Clouds
10:48 PM 48.2 °F - 17.6 °F 30% 29.76 in 10.0 mi West 13.8 mph 17.3 mph N/A   Scattered Clouds
11:09 PM 46.4 °F 40.7 °F 17.6 °F 32% 29.75 in 10.0 mi West 12.7 mph - N/A   Clear
11:29 PM 46.4 °F 41.1 °F 15.8 °F 29% 29.77 in 10.0 mi WSW 11.5 mph - N/A   Clear
11:49 PM 46.4 °F 42.4 °F 15.8 °F 29% 29.78 in 10.0 mi SW 8.1 mph - N/A   Clear